Pagina principală
METAR-TAF:

METAR-TAF

Aeroporturi :

Sandpoint Airport (Dave Wall Field)

Sandpoint, Idaho, Statele Unite ale Americii

Latitudine: 48-17-58N, longitudine: 116-33-36W, elevație: 648 m

Observații meteo curente

Raportul a fost făcut în urmă cu 39 de minute, la 17:15 UTC
Vânt 11 kt de la Nord-est cu rafale de până la 16 kt
Temperatură 15°C
Umiditate 59%
Presiune 1014 hPa
Vizibilitate: 16.1 km
Nori împrăștiați la o înălțime de 7000 picior
Nori fragmentați la o înălțime de 9000 picior
Nori fragmentați la o înălțime de 11000 picior

METAR: KSZT 281715Z AUTO 04011G16KT 10SM SCT070 BKN090 BKN110 15/07 A2994 RMK AO2

Ora: 10:54 (17:54 UTC)


TAF: lipsă

Observații și prognoze meteo pentru peste 4.000 de aeroporturi (rapoarte METAR și TAF).

Stațiile disponibile sunt reprezentate pe hartă prin puncte galbene și roșii.

Țineți indicatorul mouse-ului pe punctul dorit pentru a vedea denumirea stației.

Apoi, faceți clic pentru a vedea observațiile și prognozele meteorologice.

Pentru a schimba harta: Pentru mărire, faceți clic pe butoanele verzi cu cruce neagră; pentru micșorare, pe butonul verde cu o liniuță; pentru hărți învecinate, pe săgețile verzi.


METAR-TAF: